sensor_id;sensor_type;location;lat;lon;timestamp;P1;durP1;ratioP1;P2;durP2;ratioP2
59728;SDS011;45588;51.598;5.618;2023-08-21T00:01:09;10.50;;;3.73;;
59728;SDS011;45588;51.598;5.618;2023-08-21T00:03:34;11.50;;;5.80;;
59728;SDS011;45588;51.598;5.618;2023-08-21T00:06:00;10.20;;;3.73;;
59728;SDS011;45588;51.598;5.618;2023-08-21T00:08:25;13.23;;;5.67;;
59728;SDS011;45588;51.598;5.618;2023-08-21T00:10:50;5.50;;;2.77;;
59728;SDS011;45588;51.598;5.618;2023-08-21T00:13:15;7.23;;;3.67;;
59728;SDS011;45588;51.598;5.618;2023-08-21T00:15:40;7.80;;;4.60;;
59728;SDS011;45588;51.598;5.618;2023-08-21T00:18:06;12.25;;;6.60;;
59728;SDS011;45588;51.598;5.618;2023-08-21T00:20:31;9.63;;;6.10;;
59728;SDS011;45588;51.598;5.618;2023-08-21T00:22:56;15.30;;;6.53;;
59728;SDS011;45588;51.598;5.618;2023-08-21T00:25:22;12.25;;;5.85;;
59728;SDS011;45588;51.598;5.618;2023-08-21T00:27:47;9.38;;;3.65;;
59728;SDS011;45588;51.598;5.618;2023-08-21T00:30:12;9.93;;;3.43;;
59728;SDS011;45588;51.598;5.618;2023-08-21T00:32:39;15.00;;;6.15;;
59728;SDS011;45588;51.598;5.618;2023-08-21T00:35:05;13.80;;;6.30;;
59728;SDS011;45588;51.598;5.618;2023-08-21T00:37:30;11.35;;;6.10;;
59728;SDS011;45588;51.598;5.618;2023-08-21T00:39:55;15.60;;;6.40;;
59728;SDS011;45588;51.598;5.618;2023-08-21T00:42:20;7.80;;;3.60;;
59728;SDS011;45588;51.598;5.618;2023-08-21T00:44:45;16.73;;;7.40;;
59728;SDS011;45588;51.598;5.618;2023-08-21T00:47:11;14.50;;;7.67;;
59728;SDS011;45588;51.598;5.618;2023-08-21T00:49:36;17.17;;;7.73;;
59728;SDS011;45588;51.598;5.618;2023-08-21T00:52:01;12.60;;;7.95;;
59728;SDS011;45588;51.598;5.618;2023-08-21T00:54:27;12.52;;;7.47;;
59728;SDS011;45588;51.598;5.618;2023-08-21T00:56:52;12.82;;;4.97;;
59728;SDS011;45588;51.598;5.618;2023-08-21T00:59:18;13.32;;;8.27;;
59728;SDS011;45588;51.598;5.618;2023-08-21T01:01:43;9.02;;;4.97;;
59728;SDS011;45588;51.598;5.618;2023-08-21T01:04:08;11.90;;;5.53;;
59728;SDS011;45588;51.598;5.618;2023-08-21T01:06:34;12.60;;;7.90;;
59728;SDS011;45588;51.598;5.618;2023-08-21T01:09:15;14.82;;;8.32;;
59728;SDS011;45588;51.598;5.618;2023-08-21T01:14:27;7.70;;;5.40;;
59728;SDS011;45588;51.598;5.618;2023-08-21T01:16:55;19.92;;;8.60;;
59728;SDS011;45588;51.598;5.618;2023-08-21T01:19:26;19.52;;;9.55;;
59728;SDS011;45588;51.598;5.618;2023-08-21T01:21:53;11.02;;;5.97;;
59728;SDS011;45588;51.598;5.618;2023-08-21T01:24:21;17.10;;;9.57;;
59728;SDS011;45588;51.598;5.618;2023-08-21T01:26:46;17.52;;;10.10;;
59728;SDS011;45588;51.598;5.618;2023-08-21T01:29:11;17.57;;;10.13;;
59728;SDS011;45588;51.598;5.618;2023-08-21T01:31:36;17.33;;;10.23;;
59728;SDS011;45588;51.598;5.618;2023-08-21T01:34:04;11.52;;;7.78;;
59728;SDS011;45588;51.598;5.618;2023-08-21T01:36:29;17.20;;;7.10;;
59728;SDS011;45588;51.598;5.618;2023-08-21T01:38:55;14.38;;;5.68;;
59728;SDS011;45588;51.598;5.618;2023-08-21T01:41:23;11.60;;;8.90;;
59728;SDS011;45588;51.598;5.618;2023-08-21T01:43:48;15.57;;;8.65;;
59728;SDS011;45588;51.598;5.618;2023-08-21T01:46:13;14.18;;;6.60;;
59728;SDS011;45588;51.598;5.618;2023-08-21T01:48:39;16.42;;;10.23;;
59728;SDS011;45588;51.598;5.618;2023-08-21T01:51:04;24.07;;;10.80;;
59728;SDS011;45588;51.598;5.618;2023-08-21T01:53:29;12.17;;;5.23;;
59728;SDS011;45588;51.598;5.618;2023-08-21T01:55:54;12.45;;;6.45;;
59728;SDS011;45588;51.598;5.618;2023-08-21T01:58:19;16.97;;;10.30;;
59728;SDS011;45588;51.598;5.618;2023-08-21T02:00:45;11.07;;;5.93;;
59728;SDS011;45588;51.598;5.618;2023-08-21T02:03:10;7.68;;;5.53;;
59728;SDS011;45588;51.598;5.618;2023-08-21T02:05:39;9.43;;;6.13;;
59728;SDS011;45588;51.598;5.618;2023-08-21T02:08:13;11.90;;;6.53;;
59728;SDS011;45588;51.598;5.618;2023-08-21T02:10:46;17.75;;;11.38;;
59728;SDS011;45588;51.598;5.618;2023-08-21T02:13:11;12.95;;;7.68;;
59728;SDS011;45588;51.598;5.618;2023-08-21T02:15:38;23.30;;;8.37;;
59728;SDS011;45588;51.598;5.618;2023-08-21T02:18:03;13.02;;;8.20;;
59728;SDS011;45588;51.598;5.618;2023-08-21T02:20:28;16.65;;;10.93;;
59728;SDS011;45588;51.598;5.618;2023-08-21T02:22:53;16.70;;;6.33;;
59728;SDS011;45588;51.598;5.618;2023-08-21T02:25:19;29.83;;;8.35;;
59728;SDS011;45588;51.598;5.618;2023-08-21T02:27:44;17.40;;;11.17;;
59728;SDS011;45588;51.598;5.618;2023-08-21T02:30:09;18.95;;;10.90;;
59728;SDS011;45588;51.598;5.618;2023-08-21T02:32:34;7.80;;;6.38;;
59728;SDS011;45588;51.598;5.618;2023-08-21T02:35:00;13.68;;;7.00;;
59728;SDS011;45588;51.598;5.618;2023-08-21T02:37:25;12.02;;;6.70;;
59728;SDS011;45588;51.598;5.618;2023-08-21T02:39:50;18.38;;;7.68;;
59728;SDS011;45588;51.598;5.618;2023-08-21T02:42:16;13.50;;;7.15;;
59728;SDS011;45588;51.598;5.618;2023-08-21T02:44:41;17.03;;;11.10;;
59728;SDS011;45588;51.598;5.618;2023-08-21T02:47:06;13.07;;;7.23;;
59728;SDS011;45588;51.598;5.618;2023-08-21T02:49:31;26.80;;;11.83;;
59728;SDS011;45588;51.598;5.618;2023-08-21T02:51:57;11.90;;;6.78;;
59728;SDS011;45588;51.598;5.618;2023-08-21T02:54:22;14.63;;;6.65;;
59728;SDS011;45588;51.598;5.618;2023-08-21T02:56:47;15.98;;;6.88;;
59728;SDS011;45588;51.598;5.618;2023-08-21T02:59:13;13.57;;;7.43;;
59728;SDS011;45588;51.598;5.618;2023-08-21T03:01:38;21.07;;;11.17;;
59728;SDS011;45588;51.598;5.618;2023-08-21T03:04:03;16.35;;;7.65;;
59728;SDS011;45588;51.598;5.618;2023-08-21T03:06:28;11.93;;;7.40;;
59728;SDS011;45588;51.598;5.618;2023-08-21T03:08:54;20.83;;;7.40;;
59728;SDS011;45588;51.598;5.618;2023-08-21T03:11:19;9.53;;;6.80;;
59728;SDS011;45588;51.598;5.618;2023-08-21T03:13:44;18.97;;;11.07;;
59728;SDS011;45588;51.598;5.618;2023-08-21T03:16:09;11.67;;;7.00;;
59728;SDS011;45588;51.598;5.618;2023-08-21T03:21:18;12.27;;;6.82;;
59728;SDS011;45588;51.598;5.618;2023-08-21T03:23:43;9.57;;;6.07;;
59728;SDS011;45588;51.598;5.618;2023-08-21T03:26:08;13.47;;;6.87;;
59728;SDS011;45588;51.598;5.618;2023-08-21T03:28:33;17.73;;;11.53;;
59728;SDS011;45588;51.598;5.618;2023-08-21T03:30:58;15.90;;;10.13;;
59728;SDS011;45588;51.598;5.618;2023-08-21T03:33:25;10.15;;;6.40;;
59728;SDS011;45588;51.598;5.618;2023-08-21T03:35:53;12.13;;;6.53;;
59728;SDS011;45588;51.598;5.618;2023-08-21T03:38:18;11.98;;;7.18;;
59728;SDS011;45588;51.598;5.618;2023-08-21T03:40:43;21.97;;;12.07;;
59728;SDS011;45588;51.598;5.618;2023-08-21T03:43:08;20.80;;;9.33;;
59728;SDS011;45588;51.598;5.618;2023-08-21T03:45:34;12.93;;;6.93;;
59728;SDS011;45588;51.598;5.618;2023-08-21T03:47:59;17.03;;;12.03;;
59728;SDS011;45588;51.598;5.618;2023-08-21T03:50:24;26.10;;;12.60;;
59728;SDS011;45588;51.598;5.618;2023-08-21T03:52:49;12.70;;;6.20;;
59728;SDS011;45588;51.598;5.618;2023-08-21T03:55:14;14.40;;;7.17;;
59728;SDS011;45588;51.598;5.618;2023-08-21T03:57:40;15.50;;;7.70;;
59728;SDS011;45588;51.598;5.618;2023-08-21T04:00:05;14.57;;;6.37;;
59728;SDS011;45588;51.598;5.618;2023-08-21T04:02:32;11.40;;;5.53;;
59728;SDS011;45588;51.598;5.618;2023-08-21T04:04:58;16.17;;;6.30;;
59728;SDS011;45588;51.598;5.618;2023-08-21T04:07:23;12.18;;;7.80;;
59728;SDS011;45588;51.598;5.618;2023-08-21T04:09:48;21.73;;;11.57;;
59728;SDS011;45588;51.598;5.618;2023-08-21T04:12:13;23.57;;;11.00;;
59728;SDS011;45588;51.598;5.618;2023-08-21T04:14:38;19.55;;;10.93;;
59728;SDS011;45588;51.598;5.618;2023-08-21T04:17:04;18.97;;;6.97;;
59728;SDS011;45588;51.598;5.618;2023-08-21T04:19:29;25.70;;;11.68;;
59728;SDS011;45588;51.598;5.618;2023-08-21T04:21:57;20.98;;;11.68;;
59728;SDS011;45588;51.598;5.618;2023-08-21T04:24:24;15.48;;;7.18;;
59728;SDS011;45588;51.598;5.618;2023-08-21T04:26:49;20.27;;;12.18;;
59728;SDS011;45588;51.598;5.618;2023-08-21T04:29:14;21.23;;;7.97;;
59728;SDS011;45588;51.598;5.618;2023-08-21T04:31:39;9.27;;;6.57;;
59728;SDS011;45588;51.598;5.618;2023-08-21T04:34:04;12.00;;;7.37;;
59728;SDS011;45588;51.598;5.618;2023-08-21T04:36:29;20.47;;;7.47;;
59728;SDS011;45588;51.598;5.618;2023-08-21T04:38:55;23.60;;;12.53;;
59728;SDS011;45588;51.598;5.618;2023-08-21T04:41:20;24.08;;;12.27;;
59728;SDS011;45588;51.598;5.618;2023-08-21T04:43:45;17.92;;;12.60;;
59728;SDS011;45588;51.598;5.618;2023-08-21T04:46:10;15.77;;;7.90;;
59728;SDS011;45588;51.598;5.618;2023-08-21T04:48:35;21.90;;;6.70;;
59728;SDS011;45588;51.598;5.618;2023-08-21T04:51:01;13.83;;;7.40;;
59728;SDS011;45588;51.598;5.618;2023-08-21T04:53:26;11.17;;;6.80;;
59728;SDS011;45588;51.598;5.618;2023-08-21T04:55:51;15.63;;;6.50;;
59728;SDS011;45588;51.598;5.618;2023-08-21T04:58:16;22.15;;;12.90;;
59728;SDS011;45588;51.598;5.618;2023-08-21T05:00:44;16.88;;;9.05;;
59728;SDS011;45588;51.598;5.618;2023-08-21T05:03:09;20.70;;;8.75;;
59728;SDS011;45588;51.598;5.618;2023-08-21T05:05:35;26.23;;;13.85;;
59728;SDS011;45588;51.598;5.618;2023-08-21T05:08:00;19.67;;;13.55;;
59728;SDS011;45588;51.598;5.618;2023-08-21T05:10:25;17.38;;;8.77;;
59728;SDS011;45588;51.598;5.618;2023-08-21T05:12:53;13.98;;;7.75;;
59728;SDS011;45588;51.598;5.618;2023-08-21T05:15:18;22.77;;;8.33;;
59728;SDS011;45588;51.598;5.618;2023-08-21T05:17:44;13.73;;;7.72;;
59728;SDS011;45588;51.598;5.618;2023-08-21T05:20:09;17.38;;;8.30;;
59728;SDS011;45588;51.598;5.618;2023-08-21T05:22:35;14.10;;;7.43;;
59728;SDS011;45588;51.598;5.618;2023-08-21T05:25:00;16.13;;;8.67;;
59728;SDS011;45588;51.598;5.618;2023-08-21T05:27:25;21.80;;;13.47;;
59728;SDS011;45588;51.598;5.618;2023-08-21T05:29:51;23.63;;;12.43;;
59728;SDS011;45588;51.598;5.618;2023-08-21T05:32:16;21.98;;;13.90;;
59728;SDS011;45588;51.598;5.618;2023-08-21T05:34:41;23.00;;;14.15;;
59728;SDS011;45588;51.598;5.618;2023-08-21T05:37:07;28.55;;;14.68;;
59728;SDS011;45588;51.598;5.618;2023-08-21T05:39:32;23.93;;;8.40;;
59728;SDS011;45588;51.598;5.618;2023-08-21T05:41:57;18.27;;;9.95;;
59728;SDS011;45588;51.598;5.618;2023-08-21T05:44:23;24.17;;;14.77;;
59728;SDS011;45588;51.598;5.618;2023-08-21T05:46:48;30.10;;;14.03;;
59728;SDS011;45588;51.598;5.618;2023-08-21T05:49:14;24.23;;;14.60;;
59728;SDS011;45588;51.598;5.618;2023-08-21T05:51:39;21.27;;;14.23;;
59728;SDS011;45588;51.598;5.618;2023-08-21T05:54:04;23.50;;;15.20;;
59728;SDS011;45588;51.598;5.618;2023-08-21T05:56:29;24.85;;;15.32;;
59728;SDS011;45588;51.598;5.618;2023-08-21T05:58:55;24.20;;;15.45;;
59728;SDS011;45588;51.598;5.618;2023-08-21T06:01:20;19.27;;;15.00;;
59728;SDS011;45588;51.598;5.618;2023-08-21T06:03:45;22.92;;;9.00;;
59728;SDS011;45588;51.598;5.618;2023-08-21T06:06:10;32.03;;;15.43;;
59728;SDS011;45588;51.598;5.618;2023-08-21T06:08:36;19.65;;;8.40;;
59728;SDS011;45588;51.598;5.618;2023-08-21T06:11:01;23.90;;;10.45;;
59728;SDS011;45588;51.598;5.618;2023-08-21T06:13:26;17.15;;;9.57;;
59728;SDS011;45588;51.598;5.618;2023-08-21T06:15:52;21.23;;;8.73;;
59728;SDS011;45588;51.598;5.618;2023-08-21T06:18:17;22.73;;;10.18;;
59728;SDS011;45588;51.598;5.618;2023-08-21T06:20:42;23.48;;;9.05;;
59728;SDS011;45588;51.598;5.618;2023-08-21T06:23:08;21.88;;;14.75;;
59728;SDS011;45588;51.598;5.618;2023-08-21T06:25:34;24.63;;;15.18;;
59728;SDS011;45588;51.598;5.618;2023-08-21T06:27:59;22.05;;;15.45;;
59728;SDS011;45588;51.598;5.618;2023-08-21T06:30:24;15.13;;;10.20;;
59728;SDS011;45588;51.598;5.618;2023-08-21T06:32:50;25.15;;;12.13;;
59728;SDS011;45588;51.598;5.618;2023-08-21T06:35:15;26.13;;;15.00;;
59728;SDS011;45588;51.598;5.618;2023-08-21T06:37:41;19.13;;;14.50;;
59728;SDS011;45588;51.598;5.618;2023-08-21T06:40:06;25.67;;;14.82;;
59728;SDS011;45588;51.598;5.618;2023-08-21T06:42:32;23.35;;;13.77;;
59728;SDS011;45588;51.598;5.618;2023-08-21T06:44:57;24.73;;;13.02;;
59728;SDS011;45588;51.598;5.618;2023-08-21T06:47:22;23.20;;;13.00;;
59728;SDS011;45588;51.598;5.618;2023-08-21T06:49:47;16.87;;;9.20;;
59728;SDS011;45588;51.598;5.618;2023-08-21T06:52:13;20.55;;;9.02;;
59728;SDS011;45588;51.598;5.618;2023-08-21T06:54:38;22.07;;;12.20;;
59728;SDS011;45588;51.598;5.618;2023-08-21T06:57:03;24.45;;;13.57;;
59728;SDS011;45588;51.598;5.618;2023-08-21T06:59:28;18.52;;;8.48;;
59728;SDS011;45588;51.598;5.618;2023-08-21T07:01:54;13.18;;;8.52;;
59728;SDS011;45588;51.598;5.618;2023-08-21T07:04:19;23.07;;;13.63;;
59728;SDS011;45588;51.598;5.618;2023-08-21T07:06:44;22.10;;;13.90;;
59728;SDS011;45588;51.598;5.618;2023-08-21T07:09:09;23.77;;;12.87;;
59728;SDS011;45588;51.598;5.618;2023-08-21T07:11:35;22.77;;;13.02;;
59728;SDS011;45588;51.598;5.618;2023-08-21T07:14:00;25.45;;;14.00;;
59728;SDS011;45588;51.598;5.618;2023-08-21T07:16:25;24.17;;;13.60;;
59728;SDS011;45588;51.598;5.618;2023-08-21T07:18:51;18.77;;;12.73;;
59728;SDS011;45588;51.598;5.618;2023-08-21T07:21:16;17.77;;;8.50;;
59728;SDS011;45588;51.598;5.618;2023-08-21T07:23:42;15.47;;;9.60;;
59728;SDS011;45588;51.598;5.618;2023-08-21T07:26:07;29.67;;;13.97;;
59728;SDS011;45588;51.598;5.618;2023-08-21T07:28:33;14.50;;;8.80;;
59728;SDS011;45588;51.598;5.618;2023-08-21T07:30:58;25.73;;;13.60;;
59728;SDS011;45588;51.598;5.618;2023-08-21T07:33:24;16.98;;;11.25;;
59728;SDS011;45588;51.598;5.618;2023-08-21T07:36:05;29.92;;;15.15;;
59728;SDS011;45588;51.598;5.618;2023-08-21T07:38:30;19.48;;;10.68;;
59728;SDS011;45588;51.598;5.618;2023-08-21T07:41:05;21.45;;;13.80;;
59728;SDS011;45588;51.598;5.618;2023-08-21T07:43:32;19.10;;;11.50;;
59728;SDS011;45588;51.598;5.618;2023-08-21T07:45:57;19.30;;;11.77;;
59728;SDS011;45588;51.598;5.618;2023-08-21T07:48:22;20.50;;;11.00;;
59728;SDS011;45588;51.598;5.618;2023-08-21T07:50:51;17.77;;;8.80;;
59728;SDS011;45588;51.598;5.618;2023-08-21T07:53:17;23.15;;;9.32;;
59728;SDS011;45588;51.598;5.618;2023-08-21T07:55:42;17.43;;;8.17;;
59728;SDS011;45588;51.598;5.618;2023-08-21T07:58:07;16.27;;;8.30;;
59728;SDS011;45588;51.598;5.618;2023-08-21T08:00:32;18.10;;;8.40;;
59728;SDS011;45588;51.598;5.618;2023-08-21T08:02:57;16.55;;;7.38;;
59728;SDS011;45588;51.598;5.618;2023-08-21T08:05:23;15.47;;;7.97;;
59728;SDS011;45588;51.598;5.618;2023-08-21T08:07:48;15.40;;;8.80;;
59728;SDS011;45588;51.598;5.618;2023-08-21T08:10:13;21.63;;;9.50;;
59728;SDS011;45588;51.598;5.618;2023-08-21T08:12:40;19.57;;;8.77;;
59728;SDS011;45588;51.598;5.618;2023-08-21T08:15:06;12.98;;;7.90;;
59728;SDS011;45588;51.598;5.618;2023-08-21T08:17:31;14.77;;;9.07;;
59728;SDS011;45588;51.598;5.618;2023-08-21T08:19:56;16.03;;;9.90;;
59728;SDS011;45588;51.598;5.618;2023-08-21T08:22:22;18.83;;;10.70;;
59728;SDS011;45588;51.598;5.618;2023-08-21T08:24:47;21.77;;;11.70;;
59728;SDS011;45588;51.598;5.618;2023-08-21T08:27:12;20.57;;;10.83;;
59728;SDS011;45588;51.598;5.618;2023-08-21T08:29:37;20.43;;;12.20;;
59728;SDS011;45588;51.598;5.618;2023-08-21T08:32:02;23.40;;;12.47;;
59728;SDS011;45588;51.598;5.618;2023-08-21T08:34:28;21.80;;;14.82;;
59728;SDS011;45588;51.598;5.618;2023-08-21T08:36:53;24.07;;;15.03;;
59728;SDS011;45588;51.598;5.618;2023-08-21T08:39:18;21.80;;;13.77;;
59728;SDS011;45588;51.598;5.618;2023-08-21T08:41:44;21.30;;;12.77;;
59728;SDS011;45588;51.598;5.618;2023-08-21T08:44:12;26.45;;;15.50;;
59728;SDS011;45588;51.598;5.618;2023-08-21T08:46:37;23.85;;;14.32;;
59728;SDS011;45588;51.598;5.618;2023-08-21T08:49:03;20.55;;;11.52;;
59728;SDS011;45588;51.598;5.618;2023-08-21T08:51:28;15.35;;;10.23;;
59728;SDS011;45588;51.598;5.618;2023-08-21T08:53:54;15.23;;;8.27;;
59728;SDS011;45588;51.598;5.618;2023-08-21T08:56:20;16.35;;;9.50;;
59728;SDS011;45588;51.598;5.618;2023-08-21T08:58:46;16.87;;;9.47;;
59728;SDS011;45588;51.598;5.618;2023-08-21T09:01:11;21.33;;;9.98;;
59728;SDS011;45588;51.598;5.618;2023-08-21T09:03:37;15.77;;;8.98;;
59728;SDS011;45588;51.598;5.618;2023-08-21T09:06:05;20.43;;;10.27;;
59728;SDS011;45588;51.598;5.618;2023-08-21T09:08:30;16.65;;;8.98;;
59728;SDS011;45588;51.598;5.618;2023-08-21T09:10:55;21.80;;;9.98;;
59728;SDS011;45588;51.598;5.618;2023-08-21T09:13:25;18.25;;;11.13;;
59728;SDS011;45588;51.598;5.618;2023-08-21T09:15:54;21.40;;;9.63;;
59728;SDS011;45588;51.598;5.618;2023-08-21T09:18:20;16.20;;;7.90;;
59728;SDS011;45588;51.598;5.618;2023-08-21T09:20:46;12.27;;;5.90;;
59728;SDS011;45588;51.598;5.618;2023-08-21T09:23:15;11.95;;;5.00;;
59728;SDS011;45588;51.598;5.618;2023-08-21T09:25:41;8.27;;;4.78;;
59728;SDS011;45588;51.598;5.618;2023-08-21T09:28:09;10.45;;;5.82;;
59728;SDS011;45588;51.598;5.618;2023-08-21T09:30:47;17.13;;;6.00;;
59728;SDS011;45588;51.598;5.618;2023-08-21T09:33:12;17.15;;;5.65;;
59728;SDS011;45588;51.598;5.618;2023-08-21T09:35:38;8.80;;;4.40;;
59728;SDS011;45588;51.598;5.618;2023-08-21T09:38:04;9.68;;;4.43;;
59728;SDS011;45588;51.598;5.618;2023-08-21T09:40:29;13.07;;;4.65;;
59728;SDS011;45588;51.598;5.618;2023-08-21T09:42:58;10.20;;;4.75;;
59728;SDS011;45588;51.598;5.618;2023-08-21T09:45:24;11.23;;;4.07;;
59728;SDS011;45588;51.598;5.618;2023-08-21T09:47:52;6.75;;;3.13;;
59728;SDS011;45588;51.598;5.618;2023-08-21T09:50:18;10.32;;;3.78;;
59728;SDS011;45588;51.598;5.618;2023-08-21T09:52:43;12.80;;;3.70;;
59728;SDS011;45588;51.598;5.618;2023-08-21T09:55:09;10.38;;;3.22;;
59728;SDS011;45588;51.598;5.618;2023-08-21T09:57:35;9.93;;;3.22;;
59728;SDS011;45588;51.598;5.618;2023-08-21T10:00:01;6.63;;;2.45;;
59728;SDS011;45588;51.598;5.618;2023-08-21T10:02:27;7.07;;;2.50;;
59728;SDS011;45588;51.598;5.618;2023-08-21T10:04:52;7.90;;;2.47;;
59728;SDS011;45588;51.598;5.618;2023-08-21T10:07:21;12.68;;;3.15;;
59728;SDS011;45588;51.598;5.618;2023-08-21T10:09:48;10.73;;;3.30;;
59728;SDS011;45588;51.598;5.618;2023-08-21T10:12:14;8.98;;;3.03;;
59728;SDS011;45588;51.598;5.618;2023-08-21T10:14:40;12.32;;;2.78;;
59728;SDS011;45588;51.598;5.618;2023-08-21T10:17:06;8.98;;;2.90;;
59728;SDS011;45588;51.598;5.618;2023-08-21T10:19:33;12.38;;;3.13;;
59728;SDS011;45588;51.598;5.618;2023-08-21T10:21:58;10.07;;;3.22;;
59728;SDS011;45588;51.598;5.618;2023-08-21T10:24:34;7.68;;;2.50;;
59728;SDS011;45588;51.598;5.618;2023-08-21T10:27:00;8.95;;;2.58;;
59728;SDS011;45588;51.598;5.618;2023-08-21T10:29:26;13.95;;;3.20;;
59728;SDS011;45588;51.598;5.618;2023-08-21T10:32:04;7.10;;;2.40;;
59728;SDS011;45588;51.598;5.618;2023-08-21T10:34:33;8.23;;;3.10;;
59728;SDS011;45588;51.598;5.618;2023-08-21T10:39:25;8.30;;;3.78;;
59728;SDS011;45588;51.598;5.618;2023-08-21T10:41:57;11.20;;;3.40;;
59728;SDS011;45588;51.598;5.618;2023-08-21T10:49:37;9.55;;;3.95;;
59728;SDS011;45588;51.598;5.618;2023-08-21T10:52:02;12.23;;;4.07;;
59728;SDS011;45588;51.598;5.618;2023-08-21T10:54:28;9.65;;;3.88;;
59728;SDS011;45588;51.598;5.618;2023-08-21T10:57:07;10.00;;;3.85;;
59728;SDS011;45588;51.598;5.618;2023-08-21T10:59:35;16.80;;;3.85;;
59728;SDS011;45588;51.598;5.618;2023-08-21T11:02:00;8.67;;;3.20;;
59728;SDS011;45588;51.598;5.618;2023-08-21T11:04:26;9.63;;;3.03;;
59728;SDS011;45588;51.598;5.618;2023-08-21T11:06:51;9.67;;;3.90;;
59728;SDS011;45588;51.598;5.618;2023-08-21T11:09:17;8.23;;;2.13;;
59728;SDS011;45588;51.598;5.618;2023-08-21T11:11:43;3.78;;;1.98;;
59728;SDS011;45588;51.598;5.618;2023-08-21T11:14:08;4.97;;;2.10;;
59728;SDS011;45588;51.598;5.618;2023-08-21T11:16:33;7.57;;;2.17;;
59728;SDS011;45588;51.598;5.618;2023-08-21T11:19:02;5.65;;;2.83;;
59728;SDS011;45588;51.598;5.618;2023-08-21T11:21:28;10.07;;;3.15;;
59728;SDS011;45588;51.598;5.618;2023-08-21T11:23:53;7.87;;;3.53;;
59728;SDS011;45588;51.598;5.618;2023-08-21T11:26:18;9.40;;;3.37;;
59728;SDS011;45588;51.598;5.618;2023-08-21T11:28:43;6.57;;;3.17;;
59728;SDS011;45588;51.598;5.618;2023-08-21T11:31:09;7.63;;;2.85;;
59728;SDS011;45588;51.598;5.618;2023-08-21T11:33:36;6.38;;;3.00;;
59728;SDS011;45588;51.598;5.618;2023-08-21T11:36:02;5.55;;;2.20;;
59728;SDS011;45588;51.598;5.618;2023-08-21T11:38:27;6.55;;;2.60;;
59728;SDS011;45588;51.598;5.618;2023-08-21T11:43:22;4.38;;;1.92;;
59728;SDS011;45588;51.598;5.618;2023-08-21T11:45:47;5.93;;;2.33;;
59728;SDS011;45588;51.598;5.618;2023-08-21T11:48:12;6.50;;;2.15;;
59728;SDS011;45588;51.598;5.618;2023-08-21T11:50:38;8.48;;;2.40;;
59728;SDS011;45588;51.598;5.618;2023-08-21T11:53:04;4.20;;;2.22;;
59728;SDS011;45588;51.598;5.618;2023-08-21T11:55:30;7.15;;;2.28;;
59728;SDS011;45588;51.598;5.618;2023-08-21T11:57:56;5.07;;;2.40;;
59728;SDS011;45588;51.598;5.618;2023-08-21T12:00:28;6.40;;;2.20;;
59728;SDS011;45588;51.598;5.618;2023-08-21T12:02:54;6.32;;;2.08;;
59728;SDS011;45588;51.598;5.618;2023-08-21T12:05:23;7.63;;;2.30;;
59728;SDS011;45588;51.598;5.618;2023-08-21T12:07:48;6.45;;;1.90;;
59728;SDS011;45588;51.598;5.618;2023-08-21T12:10:14;4.07;;;2.05;;
59728;SDS011;45588;51.598;5.618;2023-08-21T12:12:39;8.93;;;2.73;;
59728;SDS011;45588;51.598;5.618;2023-08-21T12:15:04;11.80;;;2.60;;
59728;SDS011;45588;51.598;5.618;2023-08-21T12:17:30;7.38;;;2.65;;
59728;SDS011;45588;51.598;5.618;2023-08-21T12:19:55;5.68;;;2.03;;
59728;SDS011;45588;51.598;5.618;2023-08-21T12:22:21;8.00;;;2.70;;
59728;SDS011;45588;51.598;5.618;2023-08-21T12:24:46;6.50;;;2.37;;
59728;SDS011;45588;51.598;5.618;2023-08-21T12:27:11;4.57;;;2.20;;
59728;SDS011;45588;51.598;5.618;2023-08-21T12:29:36;6.10;;;2.47;;
59728;SDS011;45588;51.598;5.618;2023-08-21T12:32:01;10.07;;;2.80;;
59728;SDS011;45588;51.598;5.618;2023-08-21T12:34:28;6.88;;;2.75;;
59728;SDS011;45588;51.598;5.618;2023-08-21T12:36:53;6.73;;;2.27;;
59728;SDS011;45588;51.598;5.618;2023-08-21T12:39:18;6.17;;;2.17;;
59728;SDS011;45588;51.598;5.618;2023-08-21T12:41:43;7.63;;;2.45;;
59728;SDS011;45588;51.598;5.618;2023-08-21T12:44:09;6.15;;;2.35;;
59728;SDS011;45588;51.598;5.618;2023-08-21T12:46:35;5.47;;;2.17;;
59728;SDS011;45588;51.598;5.618;2023-08-21T12:49:00;6.85;;;2.10;;
59728;SDS011;45588;51.598;5.618;2023-08-21T12:51:26;10.00;;;2.45;;
59728;SDS011;45588;51.598;5.618;2023-08-21T12:53:52;8.93;;;2.88;;
59728;SDS011;45588;51.598;5.618;2023-08-21T12:56:17;6.33;;;2.23;;
59728;SDS011;45588;51.598;5.618;2023-08-21T12:58:43;5.82;;;2.13;;
59728;SDS011;45588;51.598;5.618;2023-08-21T13:01:08;7.13;;;2.77;;
59728;SDS011;45588;51.598;5.618;2023-08-21T13:03:33;6.28;;;2.58;;
59728;SDS011;45588;51.598;5.618;2023-08-21T13:05:58;8.50;;;2.30;;
59728;SDS011;45588;51.598;5.618;2023-08-21T13:08:24;5.27;;;2.40;;
59728;SDS011;45588;51.598;5.618;2023-08-21T13:10:49;8.23;;;2.85;;
59728;SDS011;45588;51.598;5.618;2023-08-21T13:13:14;5.87;;;2.43;;
59728;SDS011;45588;51.598;5.618;2023-08-21T13:15:39;6.50;;;2.33;;
59728;SDS011;45588;51.598;5.618;2023-08-21T13:18:04;8.63;;;2.73;;
59728;SDS011;45588;51.598;5.618;2023-08-21T13:20:30;11.45;;;2.67;;
59728;SDS011;45588;51.598;5.618;2023-08-21T13:22:55;5.57;;;2.42;;
59728;SDS011;45588;51.598;5.618;2023-08-21T13:25:22;8.20;;;2.13;;
59728;SDS011;45588;51.598;5.618;2023-08-21T13:27:47;6.57;;;2.17;;
59728;SDS011;45588;51.598;5.618;2023-08-21T13:30:13;9.15;;;2.30;;
59728;SDS011;45588;51.598;5.618;2023-08-21T13:32:38;7.50;;;2.47;;
59728;SDS011;45588;51.598;5.618;2023-08-21T13:35:04;6.03;;;2.80;;
59728;SDS011;45588;51.598;5.618;2023-08-21T13:37:33;9.43;;;3.47;;
59728;SDS011;45588;51.598;5.618;2023-08-21T13:39:58;6.07;;;2.40;;
59728;SDS011;45588;51.598;5.618;2023-08-21T13:42:25;6.72;;;2.40;;
59728;SDS011;45588;51.598;5.618;2023-08-21T13:44:50;7.82;;;2.50;;
59728;SDS011;45588;51.598;5.618;2023-08-21T13:47:15;7.57;;;2.70;;
59728;SDS011;45588;51.598;5.618;2023-08-21T13:49:41;7.13;;;2.67;;
59728;SDS011;45588;51.598;5.618;2023-08-21T13:52:06;8.53;;;2.60;;
59728;SDS011;45588;51.598;5.618;2023-08-21T13:54:31;7.00;;;2.40;;
59728;SDS011;45588;51.598;5.618;2023-08-21T13:56:56;5.20;;;2.95;;
59728;SDS011;45588;51.598;5.618;2023-08-21T13:59:22;7.50;;;2.45;;
59728;SDS011;45588;51.598;5.618;2023-08-21T14:01:47;6.60;;;2.80;;
59728;SDS011;45588;51.598;5.618;2023-08-21T14:04:12;4.80;;;2.40;;
59728;SDS011;45588;51.598;5.618;2023-08-21T14:06:37;6.07;;;2.93;;
59728;SDS011;45588;51.598;5.618;2023-08-21T14:09:03;5.70;;;2.40;;
59728;SDS011;45588;51.598;5.618;2023-08-21T14:11:28;7.93;;;3.20;;
59728;SDS011;45588;51.598;5.618;2023-08-21T14:13:53;4.68;;;2.15;;
59728;SDS011;45588;51.598;5.618;2023-08-21T14:16:18;5.35;;;3.00;;
59728;SDS011;45588;51.598;5.618;2023-08-21T14:18:43;6.57;;;2.37;;
59728;SDS011;45588;51.598;5.618;2023-08-21T14:21:09;6.07;;;2.27;;
59728;SDS011;45588;51.598;5.618;2023-08-21T14:23:34;4.87;;;2.10;;
59728;SDS011;45588;51.598;5.618;2023-08-21T14:25:59;4.50;;;2.30;;
59728;SDS011;45588;51.598;5.618;2023-08-21T14:28:24;5.57;;;2.60;;
59728;SDS011;45588;51.598;5.618;2023-08-21T14:30:49;5.50;;;2.43;;
59728;SDS011;45588;51.598;5.618;2023-08-21T14:33:18;4.45;;;1.95;;
59728;SDS011;45588;51.598;5.618;2023-08-21T14:35:43;5.07;;;2.45;;
59728;SDS011;45588;51.598;5.618;2023-08-21T14:38:09;7.37;;;2.47;;
59728;SDS011;45588;51.598;5.618;2023-08-21T14:40:37;5.97;;;2.70;;
59728;SDS011;45588;51.598;5.618;2023-08-21T14:43:02;6.07;;;2.05;;